sensor_id;sensor_type;location;lat;lon;timestamp;pressure;altitude;pressure_sealevel;temperature;humidity
58534;BME280;44109;52.398;7.024;2023-06-04T00:01:32;102012.22;;;13.14;70.78
58534;BME280;44109;52.398;7.024;2023-06-04T00:04:00;102011.22;;;13.07;70.55
58534;BME280;44109;52.398;7.024;2023-06-04T00:06:27;102005.16;;;12.89;72.29
58534;BME280;44109;52.398;7.024;2023-06-04T00:09:09;102006.34;;;12.88;73.09
58534;BME280;44109;52.398;7.024;2023-06-04T00:11:36;102000.19;;;12.94;73.16
58534;BME280;44109;52.398;7.024;2023-06-04T00:14:05;101999.59;;;12.89;73.60
58534;BME280;44109;52.398;7.024;2023-06-04T00:16:33;101999.97;;;12.87;74.13
58534;BME280;44109;52.398;7.024;2023-06-04T00:19:01;101994.56;;;12.79;74.41
58534;BME280;44109;52.398;7.024;2023-06-04T00:21:29;101992.28;;;12.68;75.43
58534;BME280;44109;52.398;7.024;2023-06-04T00:23:56;101993.25;;;12.60;76.07
58534;BME280;44109;52.398;7.024;2023-06-04T00:26:24;101998.06;;;12.48;77.63
58534;BME280;44109;52.398;7.024;2023-06-04T00:28:51;101994.63;;;12.26;79.99
58534;BME280;44109;52.398;7.024;2023-06-04T00:31:22;102002.91;;;12.23;80.90
58534;BME280;44109;52.398;7.024;2023-06-04T00:33:49;101995.13;;;12.16;81.72
58534;BME280;44109;52.398;7.024;2023-06-04T00:36:17;101997.72;;;12.09;82.72
58534;BME280;44109;52.398;7.024;2023-06-04T00:38:45;101997.03;;;12.00;83.87
58534;BME280;44109;52.398;7.024;2023-06-04T00:41:13;102005.28;;;11.96;84.08
58534;BME280;44109;52.398;7.024;2023-06-04T00:43:40;102008.06;;;11.96;83.18
58534;BME280;44109;52.398;7.024;2023-06-04T00:46:11;102012.56;;;11.88;83.65
58534;BME280;44109;52.398;7.024;2023-06-04T00:48:45;102006.78;;;11.81;83.60
58534;BME280;44109;52.398;7.024;2023-06-04T00:51:12;102007.22;;;11.71;84.52
58534;BME280;44109;52.398;7.024;2023-06-04T00:53:40;102007.00;;;11.64;84.67
58534;BME280;44109;52.398;7.024;2023-06-04T00:56:08;102002.00;;;11.57;84.89
58534;BME280;44109;52.398;7.024;2023-06-04T00:58:37;102013.59;;;11.47;85.14
58534;BME280;44109;52.398;7.024;2023-06-04T01:01:09;102013.25;;;11.36;87.10
58534;BME280;44109;52.398;7.024;2023-06-04T01:03:45;102010.34;;;11.33;87.06
58534;BME280;44109;52.398;7.024;2023-06-04T01:06:20;102015.53;;;11.22;88.60
58534;BME280;44109;52.398;7.024;2023-06-04T01:08:57;101998.97;;;11.13;89.94
58534;BME280;44109;52.398;7.024;2023-06-04T01:11:33;101990.03;;;11.08;89.37
58534;BME280;44109;52.398;7.024;2023-06-04T01:14:02;102003.00;;;11.04;89.62
58534;BME280;44109;52.398;7.024;2023-06-04T01:16:39;102002.41;;;10.98;89.56
58534;BME280;44109;52.398;7.024;2023-06-04T01:19:30;102000.41;;;10.86;91.00
58534;BME280;44109;52.398;7.024;2023-06-04T01:22:36;101998.66;;;10.82;91.75
58534;BME280;44109;52.398;7.024;2023-06-04T01:25:12;102010.31;;;10.75;93.27
58534;BME280;44109;52.398;7.024;2023-06-04T01:27:48;101998.75;;;10.73;93.94
58534;BME280;44109;52.398;7.024;2023-06-04T01:30:19;102011.81;;;10.73;93.48
58534;BME280;44109;52.398;7.024;2023-06-04T01:32:50;101971.38;;;10.51;93.77
58534;BME280;44109;52.398;7.024;2023-06-04T01:35:21;102001.97;;;10.63;94.13
58534;BME280;44109;52.398;7.024;2023-06-04T01:37:49;102000.53;;;10.57;93.88
58534;BME280;44109;52.398;7.024;2023-06-04T01:40:18;101995.53;;;10.50;94.54
58534;BME280;44109;52.398;7.024;2023-06-04T01:42:46;102003.72;;;10.47;94.79
58534;BME280;44109;52.398;7.024;2023-06-04T01:45:13;102002.31;;;10.40;95.36
58534;BME280;44109;52.398;7.024;2023-06-04T01:47:41;102002.25;;;10.28;99.44
58534;BME280;44109;52.398;7.024;2023-06-04T01:50:09;102003.66;;;10.34;100.00
58534;BME280;44109;52.398;7.024;2023-06-04T01:52:39;101996.50;;;10.33;99.71
58534;BME280;44109;52.398;7.024;2023-06-04T01:55:09;101993.06;;;10.36;99.80
58534;BME280;44109;52.398;7.024;2023-06-04T01:57:39;101999.72;;;10.35;100.00
58534;BME280;44109;52.398;7.024;2023-06-04T02:00:09;101993.84;;;10.37;100.00
58534;BME280;44109;52.398;7.024;2023-06-04T02:02:39;101992.25;;;10.36;100.00
58534;BME280;44109;52.398;7.024;2023-06-04T02:05:09;101993.38;;;10.35;100.00
58534;BME280;44109;52.398;7.024;2023-06-04T02:07:40;101991.16;;;10.28;100.00
58534;BME280;44109;52.398;7.024;2023-06-04T02:10:11;101990.84;;;10.21;100.00
58534;BME280;44109;52.398;7.024;2023-06-04T02:12:51;101995.44;;;10.17;100.00
58534;BME280;44109;52.398;7.024;2023-06-04T02:15:22;101994.50;;;10.13;100.00
58534;BME280;44109;52.398;7.024;2023-06-04T02:17:50;101996.78;;;10.11;100.00
58534;BME280;44109;52.398;7.024;2023-06-04T02:20:18;101994.50;;;10.13;100.00
58534;BME280;44109;52.398;7.024;2023-06-04T02:22:47;101989.63;;;10.10;100.00
58534;BME280;44109;52.398;7.024;2023-06-04T02:25:14;101986.72;;;10.06;100.00
58534;BME280;44109;52.398;7.024;2023-06-04T02:27:42;101987.72;;;10.02;100.00
58534;BME280;44109;52.398;7.024;2023-06-04T02:30:10;101982.38;;;9.97;100.00
58534;BME280;44109;52.398;7.024;2023-06-04T02:32:38;101982.91;;;9.90;100.00
58534;BME280;44109;52.398;7.024;2023-06-04T02:35:06;102000.44;;;9.82;100.00
58534;BME280;44109;52.398;7.024;2023-06-04T02:37:33;101999.13;;;9.79;100.00
58534;BME280;44109;52.398;7.024;2023-06-04T02:40:03;101995.19;;;9.80;100.00
58534;BME280;44109;52.398;7.024;2023-06-04T02:42:30;101996.50;;;9.83;100.00
58534;BME280;44109;52.398;7.024;2023-06-04T02:44:58;101997.31;;;9.83;100.00
58534;BME280;44109;52.398;7.024;2023-06-04T02:47:26;101994.19;;;9.85;100.00
58534;BME280;44109;52.398;7.024;2023-06-04T02:49:54;101994.88;;;9.82;100.00
58534;BME280;44109;52.398;7.024;2023-06-04T02:52:22;101995.69;;;9.82;100.00
58534;BME280;44109;52.398;7.024;2023-06-04T02:54:51;101977.97;;;9.75;100.00
58534;BME280;44109;52.398;7.024;2023-06-04T02:57:20;101989.81;;;9.84;100.00
58534;BME280;44109;52.398;7.024;2023-06-04T02:59:47;102000.44;;;9.82;100.00
58534;BME280;44109;52.398;7.024;2023-06-04T03:02:15;101988.69;;;9.76;100.00
58534;BME280;44109;52.398;7.024;2023-06-04T03:04:42;101976.84;;;9.67;100.00
58534;BME280;44109;52.398;7.024;2023-06-04T03:07:10;101993.97;;;9.69;100.00
58534;BME280;44109;52.398;7.024;2023-06-04T03:09:40;102002.28;;;9.69;100.00
58534;BME280;44109;52.398;7.024;2023-06-04T03:12:07;101978.59;;;9.51;100.00
58534;BME280;44109;52.398;7.024;2023-06-04T03:14:37;101999.22;;;9.62;100.00
58534;BME280;44109;52.398;7.024;2023-06-04T03:17:05;101987.22;;;9.49;100.00
58534;BME280;44109;52.398;7.024;2023-06-04T03:19:37;101999.41;;;9.57;100.00
58534;BME280;44109;52.398;7.024;2023-06-04T03:22:07;101995.63;;;9.61;100.00
58534;BME280;44109;52.398;7.024;2023-06-04T03:24:38;102001.31;;;9.65;100.00
58534;BME280;44109;52.398;7.024;2023-06-04T03:27:08;101998.09;;;9.63;100.00
58534;BME280;44109;52.398;7.024;2023-06-04T03:29:37;101986.25;;;9.54;100.00
58534;BME280;44109;52.398;7.024;2023-06-04T03:32:07;101995.31;;;9.63;100.00
58534;BME280;44109;52.398;7.024;2023-06-04T03:34:35;102000.53;;;9.64;100.00
58534;BME280;44109;52.398;7.024;2023-06-04T03:37:03;102004.56;;;9.67;100.00
58534;BME280;44109;52.398;7.024;2023-06-04T03:39:31;102014.03;;;9.66;100.00
58534;BME280;44109;52.398;7.024;2023-06-04T03:41:58;102011.06;;;9.71;100.00
58534;BME280;44109;52.398;7.024;2023-06-04T03:44:26;102005.00;;;9.78;100.00
58534;BME280;44109;52.398;7.024;2023-06-04T03:46:55;102008.25;;;9.80;100.00
58534;BME280;44109;52.398;7.024;2023-06-04T03:49:23;102001.91;;;9.79;100.00
58534;BME280;44109;52.398;7.024;2023-06-04T03:51:50;102009.19;;;9.84;100.00
58534;BME280;44109;52.398;7.024;2023-06-04T03:54:18;102000.19;;;9.96;100.00
58534;BME280;44109;52.398;7.024;2023-06-04T03:56:46;101982.25;;;9.93;100.00
58534;BME280;44109;52.398;7.024;2023-06-04T03:59:14;101997.59;;;10.11;100.00
58534;BME280;44109;52.398;7.024;2023-06-04T04:01:41;102000.16;;;10.16;100.00
58534;BME280;44109;52.398;7.024;2023-06-04T04:04:11;102000.31;;;10.20;100.00
58534;BME280;44109;52.398;7.024;2023-06-04T04:06:38;102000.75;;;10.31;100.00
58534;BME280;44109;52.398;7.024;2023-06-04T04:09:06;101992.56;;;10.34;100.00
58534;BME280;44109;52.398;7.024;2023-06-04T04:11:33;102002.63;;;10.39;100.00
58534;BME280;44109;52.398;7.024;2023-06-04T04:14:01;102004.47;;;10.56;100.00
58534;BME280;44109;52.398;7.024;2023-06-04T04:16:28;102000.53;;;10.57;100.00
58534;BME280;44109;52.398;7.024;2023-06-04T04:18:56;101997.75;;;10.57;100.00
58534;BME280;44109;52.398;7.024;2023-06-04T04:21:25;101996.94;;;10.56;100.00
58534;BME280;44109;52.398;7.024;2023-06-04T04:23:53;101999.78;;;10.69;100.00
58534;BME280;44109;52.398;7.024;2023-06-04T04:26:21;101998.66;;;10.82;100.00
58534;BME280;44109;52.398;7.024;2023-06-04T04:28:53;101994.56;;;11.00;100.00
58534;BME280;44109;52.398;7.024;2023-06-04T04:31:24;101973.94;;;11.01;100.00
58534;BME280;44109;52.398;7.024;2023-06-04T04:33:51;101990.44;;;11.43;100.00
58534;BME280;44109;52.398;7.024;2023-06-04T04:36:20;101999.47;;;11.77;100.00
58534;BME280;44109;52.398;7.024;2023-06-04T04:38:49;102010.06;;;12.24;100.00
58534;BME280;44109;52.398;7.024;2023-06-04T04:41:20;102003.28;;;12.77;100.00
58534;BME280;44109;52.398;7.024;2023-06-04T04:43:48;102010.88;;;13.08;100.00
58534;BME280;44109;52.398;7.024;2023-06-04T04:46:16;102005.53;;;13.63;100.00
58534;BME280;44109;52.398;7.024;2023-06-04T04:48:44;102006.31;;;13.79;100.00
58534;BME280;44109;52.398;7.024;2023-06-04T04:51:11;102002.44;;;14.19;100.00
58534;BME280;44109;52.398;7.024;2023-06-04T04:53:39;101984.03;;;14.53;100.00
58534;BME280;44109;52.398;7.024;2023-06-04T04:56:08;101996.69;;;15.09;100.00
58534;BME280;44109;52.398;7.024;2023-06-04T04:58:35;101998.69;;;15.81;100.00
58534;BME280;44109;52.398;7.024;2023-06-04T05:01:03;101986.66;;;15.80;100.00
58534;BME280;44109;52.398;7.024;2023-06-04T05:03:30;101991.84;;;16.05;97.91
58534;BME280;44109;52.398;7.024;2023-06-04T05:05:58;102005.78;;;16.95;99.49
58534;BME280;44109;52.398;7.024;2023-06-04T05:08:25;102003.47;;;17.48;89.85
58534;BME280;44109;52.398;7.024;2023-06-04T05:10:53;102006.72;;;18.06;82.08
58534;BME280;44109;52.398;7.024;2023-06-04T05:13:22;102001.19;;;18.23;75.07
58534;BME280;44109;52.398;7.024;2023-06-04T05:15:49;101997.38;;;18.71;72.16
58534;BME280;44109;52.398;7.024;2023-06-04T05:18:18;101996.63;;;18.88;71.01
58534;BME280;44109;52.398;7.024;2023-06-04T05:20:47;102001.53;;;19.45;67.11
58534;BME280;44109;52.398;7.024;2023-06-04T05:23:15;101996.72;;;19.45;65.16
58534;BME280;44109;52.398;7.024;2023-06-04T05:25:43;101992.66;;;19.96;62.30
58534;BME280;44109;52.398;7.024;2023-06-04T05:28:10;101999.41;;;20.31;58.79
58534;BME280;44109;52.398;7.024;2023-06-04T05:30:40;102002.06;;;20.70;59.79
58534;BME280;44109;52.398;7.024;2023-06-04T05:33:07;102009.41;;;20.39;58.89
58534;BME280;44109;52.398;7.024;2023-06-04T05:35:43;102005.00;;;20.38;59.48
58534;BME280;44109;52.398;7.024;2023-06-04T05:38:11;101996.22;;;21.02;58.71
58534;BME280;44109;52.398;7.024;2023-06-04T05:40:41;101996.19;;;21.10;53.04
58534;BME280;44109;52.398;7.024;2023-06-04T05:43:09;102008.53;;;21.30;56.07
58534;BME280;44109;52.398;7.024;2023-06-04T05:45:36;102006.72;;;20.07;53.74
58534;BME280;44109;52.398;7.024;2023-06-04T05:48:06;101998.06;;;20.64;54.89
58534;BME280;44109;52.398;7.024;2023-06-04T05:50:33;102012.28;;;20.28;54.82
58534;BME280;44109;52.398;7.024;2023-06-04T05:53:01;102010.75;;;20.10;55.93
58534;BME280;44109;52.398;7.024;2023-06-04T05:55:29;102012.50;;;20.81;54.86
58534;BME280;44109;52.398;7.024;2023-06-04T05:57:56;102013.38;;;21.82;50.54
58534;BME280;44109;52.398;7.024;2023-06-04T06:00:24;101997.69;;;21.25;51.57
58534;BME280;44109;52.398;7.024;2023-06-04T06:02:52;102001.41;;;21.67;53.16
58534;BME280;44109;52.398;7.024;2023-06-04T06:05:21;102015.75;;;22.59;49.82
58534;BME280;44109;52.398;7.024;2023-06-04T06:07:48;102011.78;;;22.22;48.60
58534;BME280;44109;52.398;7.024;2023-06-04T06:10:16;102016.59;;;22.56;47.64
58534;BME280;44109;52.398;7.024;2023-06-04T06:12:44;102019.31;;;22.32;47.18
58534;BME280;44109;52.398;7.024;2023-06-04T06:15:11;102018.97;;;22.91;48.30
58534;BME280;44109;52.398;7.024;2023-06-04T06:17:39;102017.53;;;23.07;44.36
58534;BME280;44109;52.398;7.024;2023-06-04T06:20:07;102013.84;;;23.37;48.63
58534;BME280;44109;52.398;7.024;2023-06-04T06:22:36;102014.13;;;22.92;44.74
58534;BME280;44109;52.398;7.024;2023-06-04T06:25:04;102024.28;;;21.31;48.25
58534;BME280;44109;52.398;7.024;2023-06-04T06:27:33;102020.13;;;21.50;48.78
58534;BME280;44109;52.398;7.024;2023-06-04T06:30:01;102024.88;;;21.57;47.74
58534;BME280;44109;52.398;7.024;2023-06-04T06:32:29;102022.84;;;21.01;51.13
58534;BME280;44109;52.398;7.024;2023-06-04T06:34:57;102021.56;;;22.07;49.22
58534;BME280;44109;52.398;7.024;2023-06-04T06:37:25;102022.69;;;22.20;46.18
58534;BME280;44109;52.398;7.024;2023-06-04T06:39:54;102021.56;;;22.07;47.61
58534;BME280;44109;52.398;7.024;2023-06-04T06:42:21;102020.81;;;23.05;48.25
58534;BME280;44109;52.398;7.024;2023-06-04T06:44:49;102024.28;;;24.10;42.75
58534;BME280;44109;52.398;7.024;2023-06-04T06:47:16;102014.06;;;24.36;40.96
58534;BME280;44109;52.398;7.024;2023-06-04T06:49:44;102027.03;;;24.57;42.86
58534;BME280;44109;52.398;7.024;2023-06-04T06:52:11;102029.78;;;25.17;39.62
58534;BME280;44109;52.398;7.024;2023-06-04T06:54:39;102032.31;;;24.75;40.61
58534;BME280;44109;52.398;7.024;2023-06-04T06:57:08;102032.63;;;24.61;41.01
58534;BME280;44109;52.398;7.024;2023-06-04T06:59:35;102027.13;;;25.42;40.98
58534;BME280;44109;52.398;7.024;2023-06-04T07:02:03;102041.69;;;25.28;42.29
58534;BME280;44109;52.398;7.024;2023-06-04T07:04:32;102043.78;;;26.05;40.25
58534;BME280;44109;52.398;7.024;2023-06-04T07:06:59;102001.22;;;24.88;38.81
58534;BME280;44109;52.398;7.024;2023-06-04T07:09:27;102038.41;;;25.62;37.68
58534;BME280;44109;52.398;7.024;2023-06-04T07:11:54;102040.84;;;25.80;37.38
58534;BME280;44109;52.398;7.024;2023-06-04T07:14:23;102040.03;;;26.54;37.51
58534;BME280;44109;52.398;7.024;2023-06-04T07:16:51;102035.25;;;26.05;36.16
58534;BME280;44109;52.398;7.024;2023-06-04T07:19:18;102028.56;;;24.42;37.35
58534;BME280;44109;52.398;7.024;2023-06-04T07:21:46;102025.94;;;23.14;40.73
58534;BME280;44109;52.398;7.024;2023-06-04T07:24:14;102041.94;;;23.98;38.84
58534;BME280;44109;52.398;7.024;2023-06-04T07:26:41;102037.69;;;24.10;39.48
58534;BME280;44109;52.398;7.024;2023-06-04T07:29:09;102033.34;;;23.31;42.12
58534;BME280;44109;52.398;7.024;2023-06-04T07:31:38;102038.75;;;24.39;40.52
58534;BME280;44109;52.398;7.024;2023-06-04T07:34:06;102040.50;;;24.53;37.76
58534;BME280;44109;52.398;7.024;2023-06-04T07:36:34;102038.97;;;25.04;40.18
58534;BME280;44109;52.398;7.024;2023-06-04T07:39:02;102042.94;;;25.43;39.91
58534;BME280;44109;52.398;7.024;2023-06-04T07:41:30;102045.78;;;25.27;38.63
58534;BME280;44109;52.398;7.024;2023-06-04T07:43:58;102043.84;;;25.04;41.28
58534;BME280;44109;52.398;7.024;2023-06-04T07:46:25;102046.78;;;26.15;38.08
58534;BME280;44109;52.398;7.024;2023-06-04T07:48:54;102033.72;;;26.17;36.94
58534;BME280;44109;52.398;7.024;2023-06-04T07:51:22;102043.84;;;26.47;36.16
58534;BME280;44109;52.398;7.024;2023-06-04T07:53:49;102037.03;;;26.99;36.61
58534;BME280;44109;52.398;7.024;2023-06-04T07:56:17;102037.06;;;26.58;34.49
58534;BME280;44109;52.398;7.024;2023-06-04T07:58:44;102047.63;;;26.99;34.54
58534;BME280;44109;52.398;7.024;2023-06-04T08:01:12;102040.09;;;25.92;34.12
58534;BME280;44109;52.398;7.024;2023-06-04T08:03:40;102038.31;;;25.66;37.06
58534;BME280;44109;52.398;7.024;2023-06-04T08:06:09;102040.41;;;26.40;33.49
58534;BME280;44109;52.398;7.024;2023-06-04T08:08:37;102038.94;;;26.77;34.66
58534;BME280;44109;52.398;7.024;2023-06-04T08:11:04;102041.41;;;26.75;34.47
58534;BME280;44109;52.398;7.024;2023-06-04T08:13:32;102038.31;;;26.56;34.71
58534;BME280;44109;52.398;7.024;2023-06-04T08:15:59;102046.97;;;26.53;34.72
58534;BME280;44109;52.398;7.024;2023-06-04T08:18:27;102041.97;;;25.66;33.94
58534;BME280;44109;52.398;7.024;2023-06-04T08:20:55;102056.97;;;25.99;35.84
58534;BME280;44109;52.398;7.024;2023-06-04T08:23:24;102046.72;;;26.02;34.61
58534;BME280;44109;52.398;7.024;2023-06-04T08:25:51;102052.78;;;26.04;34.45
58534;BME280;44109;52.398;7.024;2023-06-04T08:28:19;102052.53;;;25.49;32.45
58534;BME280;44109;52.398;7.024;2023-06-04T08:30:47;102046.56;;;24.91;33.75
58534;BME280;44109;52.398;7.024;2023-06-04T08:33:14;102059.63;;;24.69;33.82
58534;BME280;44109;52.398;7.024;2023-06-04T08:35:42;102054.97;;;22.87;35.97
58534;BME280;44109;52.398;7.024;2023-06-04T08:38:10;102057.31;;;23.50;35.33
58534;BME280;44109;52.398;7.024;2023-06-04T08:40:39;102053.22;;;23.00;34.75
58534;BME280;44109;52.398;7.024;2023-06-04T08:43:07;102050.28;;;22.77;37.02
58534;BME280;44109;52.398;7.024;2023-06-04T08:45:38;102062.06;;;23.02;35.61
58534;BME280;44109;52.398;7.024;2023-06-04T08:48:09;102058.84;;;22.36;35.69
58534;BME280;44109;52.398;7.024;2023-06-04T08:50:39;102057.13;;;22.45;36.73
58534;BME280;44109;52.398;7.024;2023-06-04T08:53:15;102032.59;;;23.00;37.65
58534;BME280;44109;52.398;7.024;2023-06-04T08:55:44;102042.09;;;22.83;36.14
58534;BME280;44109;52.398;7.024;2023-06-04T08:58:14;102045.34;;;23.12;35.46
58534;BME280;44109;52.398;7.024;2023-06-04T09:00:42;102050.09;;;22.91;36.39
58534;BME280;44109;52.398;7.024;2023-06-04T09:03:10;102059.84;;;22.52;35.85
58534;BME280;44109;52.398;7.024;2023-06-04T09:05:40;102057.66;;;21.92;36.71
58534;BME280;44109;52.398;7.024;2023-06-04T09:08:14;102063.78;;;21.83;35.62
58534;BME280;44109;52.398;7.024;2023-06-04T09:10:46;102052.53;;;21.79;38.57
58534;BME280;44109;52.398;7.024;2023-06-04T09:13:18;102052.31;;;22.42;37.29
58534;BME280;44109;52.398;7.024;2023-06-04T09:15:58;102067.25;;;22.77;36.60
58534;BME280;44109;52.398;7.024;2023-06-04T09:18:27;102056.53;;;22.27;35.60
58534;BME280;44109;52.398;7.024;2023-06-04T09:21:04;102056.28;;;21.66;36.43
58534;BME280;44109;52.398;7.024;2023-06-04T09:23:34;102048.88;;;21.27;37.74
58534;BME280;44109;52.398;7.024;2023-06-04T09:26:09;102052.28;;;21.60;39.39
58534;BME280;44109;52.398;7.024;2023-06-04T09:28:39;102055.00;;;22.19;37.02
58534;BME280;44109;52.398;7.024;2023-06-04T09:31:08;102058.44;;;22.37;36.74
58534;BME280;44109;52.398;7.024;2023-06-04T09:33:43;102044.28;;;21.55;37.19
58534;BME280;44109;52.398;7.024;2023-06-04T09:36:11;102035.31;;;21.67;36.63
58534;BME280;44109;52.398;7.024;2023-06-04T09:38:39;102052.75;;;21.99;36.88
58534;BME280;44109;52.398;7.024;2023-06-04T09:41:12;102048.88;;;22.24;35.08
58534;BME280;44109;52.398;7.024;2023-06-04T09:43:40;102053.00;;;22.53;35.08
58534;BME280;44109;52.398;7.024;2023-06-04T09:46:10;102044.50;;;22.53;34.40
58534;BME280;44109;52.398;7.024;2023-06-04T09:48:38;102043.13;;;22.65;34.10
58534;BME280;44109;52.398;7.024;2023-06-04T09:51:08;102055.94;;;22.01;35.75
58534;BME280;44109;52.398;7.024;2023-06-04T09:53:37;102049.81;;;22.14;36.11
58534;BME280;44109;52.398;7.024;2023-06-04T09:56:06;102051.16;;;22.40;34.70
58534;BME280;44109;52.398;7.024;2023-06-04T09:58:39;102046.44;;;21.85;36.73
58534;BME280;44109;52.398;7.024;2023-06-04T10:01:08;102049.66;;;22.28;34.88
58534;BME280;44109;52.398;7.024;2023-06-04T10:03:39;102047.13;;;22.37;34.19
58534;BME280;44109;52.398;7.024;2023-06-04T10:06:15;102031.28;;;22.43;35.69
58534;BME280;44109;52.398;7.024;2023-06-04T10:08:43;102049.88;;;22.44;34.40
58534;BME280;44109;52.398;7.024;2023-06-04T10:11:13;102050.38;;;21.94;35.00
58534;BME280;44109;52.398;7.024;2023-06-04T10:13:48;102054.16;;;21.77;34.17
58534;BME280;44109;52.398;7.024;2023-06-04T10:16:21;102058.78;;;21.57;35.02
58534;BME280;44109;52.398;7.024;2023-06-04T10:18:52;102050.94;;;21.23;35.16
58534;BME280;44109;52.398;7.024;2023-06-04T10:21:23;102050.41;;;21.42;36.29
58534;BME280;44109;52.398;7.024;2023-06-04T10:23:50;102029.09;;;21.83;35.45
58534;BME280;44109;52.398;7.024;2023-06-04T10:26:18;102051.88;;;22.06;33.34
58534;BME280;44109;52.398;7.024;2023-06-04T10:28:47;102042.94;;;22.11;35.46
58534;BME280;44109;52.398;7.024;2023-06-04T10:31:17;102038.63;;;22.37;34.74
58534;BME280;44109;52.398;7.024;2023-06-04T10:33:45;102037.31;;;22.49;34.39
58534;BME280;44109;52.398;7.024;2023-06-04T10:36:16;102034.88;;;22.47;33.39
58534;BME280;44109;52.398;7.024;2023-06-04T10:38:46;102042.53;;;22.50;32.54
58534;BME280;44109;52.398;7.024;2023-06-04T10:41:14;102043.31;;;22.17;32.94
58534;BME280;44109;52.398;7.024;2023-06-04T10:43:43;102040.41;;;22.24;34.68
58534;BME280;44109;52.398;7.024;2023-06-04T10:46:14;102043.63;;;22.26;32.50
58534;BME280;44109;52.398;7.024;2023-06-04T10:48:46;102033.00;;;22.37;32.84
58534;BME280;44109;52.398;7.024;2023-06-04T10:51:29;102037.91;;;22.64;33.61
58534;BME280;44109;52.398;7.024;2023-06-04T10:53:57;102047.91;;;22.72;32.92
58534;BME280;44109;52.398;7.024;2023-06-04T10:56:26;102043.34;;;22.47;33.21
58534;BME280;44109;52.398;7.024;2023-06-04T10:58:55;102040.28;;;22.69;31.92
58534;BME280;44109;52.398;7.024;2023-06-04T11:01:25;101998.75;;;22.62;34.06
58534;BME280;44109;52.398;7.024;2023-06-04T11:03:53;102021.31;;;22.66;33.43
58534;BME280;44109;52.398;7.024;2023-06-04T11:06:21;102029.94;;;22.89;34.08
58534;BME280;44109;52.398;7.024;2023-06-04T11:09:01;102018.28;;;23.11;33.84
58534;BME280;44109;52.398;7.024;2023-06-04T11:11:30;102030.34;;;23.15;32.85
58534;BME280;44109;52.398;7.024;2023-06-04T11:14:07;102006.97;;;23.11;32.77
58534;BME280;44109;52.398;7.024;2023-06-04T11:16:37;102001.31;;;23.11;32.40
58534;BME280;44109;52.398;7.024;2023-06-04T11:19:05;102014.84;;;22.65;31.55
58534;BME280;44109;52.398;7.024;2023-06-04T11:21:34;102020.34;;;22.49;33.27
58534;BME280;44109;52.398;7.024;2023-06-04T11:24:04;102020.63;;;22.58;32.83
58534;BME280;44109;52.398;7.024;2023-06-04T11:26:33;101995.78;;;22.73;32.97
58534;BME280;44109;52.398;7.024;2023-06-04T11:29:06;102010.84;;;22.93;33.58
58534;BME280;44109;52.398;7.024;2023-06-04T11:31:42;102019.66;;;22.68;31.60
58534;BME280;44109;52.398;7.024;2023-06-04T11:34:11;102014.78;;;22.72;33.36
58534;BME280;44109;52.398;7.024;2023-06-04T11:36:49;102001.97;;;22.95;33.30
58534;BME280;44109;52.398;7.024;2023-06-04T11:39:19;102008.94;;;23.14;33.32
58534;BME280;44109;52.398;7.024;2023-06-04T11:41:47;101996.78;;;23.17;33.67
58534;BME280;44109;52.398;7.024;2023-06-04T11:44:18;101997.97;;;23.16;32.99
58534;BME280;44109;52.398;7.024;2023-06-04T11:46:48;102000.41;;;23.17;32.83
58534;BME280;44109;52.398;7.024;2023-06-04T11:49:19;101991.84;;;22.63;32.47
58534;BME280;44109;52.398;7.024;2023-06-04T11:51:47;101997.56;;;22.90;32.05
58534;BME280;44109;52.398;7.024;2023-06-04T11:54:16;101988.56;;;22.68;32.12
58534;BME280;44109;52.398;7.024;2023-06-04T11:56:48;101997.00;;;22.72;32.20
58534;BME280;44109;52.398;7.024;2023-06-04T11:59:18;101983.31;;;22.97;31.79
58534;BME280;44109;52.398;7.024;2023-06-04T12:01:48;101983.56;;;23.07;32.57
58534;BME280;44109;52.398;7.024;2023-06-04T12:04:18;101990.94;;;23.00;33.40
58534;BME280;44109;52.398;7.024;2023-06-04T12:06:54;101988.91;;;23.28;33.27
58534;BME280;44109;52.398;7.024;2023-06-04T12:09:24;101988.59;;;23.46;32.53
58534;BME280;44109;52.398;7.024;2023-06-04T12:11:57;101982.09;;;23.49;31.70
58534;BME280;44109;52.398;7.024;2023-06-04T12:14:26;101989.50;;;23.16;30.88
58534;BME280;44109;52.398;7.024;2023-06-04T12:16:56;101991.16;;;23.13;31.29
58534;BME280;44109;52.398;7.024;2023-06-04T12:19:24;101983.78;;;23.43;31.00
58534;BME280;44109;52.398;7.024;2023-06-04T12:21:59;101983.91;;;23.59;32.25
58534;BME280;44109;52.398;7.024;2023-06-04T12:24:29;101980.59;;;23.41;32.11
58534;BME280;44109;52.398;7.024;2023-06-04T12:27:03;101981.94;;;23.56;31.09
58534;BME280;44109;52.398;7.024;2023-06-04T12:29:33;101988.16;;;23.47;30.38
58534;BME280;44109;52.398;7.024;2023-06-04T12:32:06;101967.28;;;23.14;30.82
58534;BME280;44109;52.398;7.024;2023-06-04T12:34:35;101963.31;;;23.35;32.35
58534;BME280;44109;52.398;7.024;2023-06-04T12:37:03;101969.06;;;23.51;31.20
58534;BME280;44109;52.398;7.024;2023-06-04T12:39:32;101967.72;;;23.83;33.22
58534;BME280;44109;52.398;7.024;2023-06-04T12:41:59;101977.97;;;23.97;31.61
58534;BME280;44109;52.398;7.024;2023-06-04T12:44:27;101974.56;;;23.62;31.10
58534;BME280;44109;52.398;7.024;2023-06-04T12:46:55;101973.38;;;23.83;32.08
58534;BME280;44109;52.398;7.024;2023-06-04T12:49:23;101965.41;;;23.78;30.56
58534;BME280;44109;52.398;7.024;2023-06-04T12:51:51;101970.00;;;24.12;32.94
58534;BME280;44109;52.398;7.024;2023-06-04T12:54:18;101947.25;;;24.15;32.95
58534;BME280;44109;52.398;7.024;2023-06-04T12:56:46;101965.44;;;24.18;30.99
58534;BME280;44109;52.398;7.024;2023-06-04T12:59:15;101967.69;;;24.26;32.47